createdAt,value
2023-04-23T00:00:03.210Z,971.10
2023-04-23T00:01:03.176Z,970.99
2023-04-23T00:02:03.257Z,971.05
2023-04-23T00:03:03.518Z,971.02
2023-04-23T00:04:03.679Z,970.96
2023-04-23T00:05:03.555Z,971.08
2023-04-23T00:06:03.438Z,970.93
2023-04-23T00:07:03.604Z,970.88
2023-04-23T00:08:03.537Z,970.90
2023-04-23T00:09:03.556Z,970.85
2023-04-23T00:10:04.065Z,971.02
2023-04-23T00:11:03.918Z,970.91
2023-04-23T00:12:03.850Z,970.96
2023-04-23T00:13:02.970Z,970.91
2023-04-23T00:14:03.007Z,970.88
2023-04-23T00:15:03.023Z,970.96
2023-04-23T00:16:03.071Z,970.99
2023-04-23T00:17:03.095Z,970.79
2023-04-23T00:18:03.120Z,970.85
2023-04-23T00:19:03.111Z,970.79
2023-04-23T00:20:03.080Z,970.79
2023-04-23T00:21:03.142Z,970.85
2023-04-23T00:22:03.144Z,970.96
2023-04-23T00:23:03.202Z,970.76
2023-04-23T00:24:03.249Z,970.76
2023-04-23T00:25:03.180Z,970.79
2023-04-23T00:26:03.209Z,970.79
2023-04-23T00:27:03.419Z,970.79
2023-04-23T00:28:03.399Z,970.76
2023-04-23T00:29:03.485Z,970.82
2023-04-23T00:30:03.539Z,970.73
2023-04-23T00:31:03.592Z,970.68
2023-04-23T00:32:03.941Z,970.73
2023-04-23T00:33:03.576Z,970.62
2023-04-23T00:34:03.659Z,970.65
2023-04-23T00:35:03.619Z,970.68
2023-04-23T00:36:03.564Z,970.65
2023-04-23T00:37:03.651Z,970.71
2023-04-23T00:38:03.646Z,970.68
2023-04-23T00:39:03.577Z,970.74
2023-04-23T00:40:03.785Z,970.65
2023-04-23T00:41:03.823Z,970.54
2023-04-23T00:42:03.901Z,970.68
2023-04-23T00:43:03.921Z,970.63
2023-04-23T00:44:03.904Z,970.54
2023-04-23T00:45:03.930Z,970.57
2023-04-23T00:46:04.068Z,970.66
2023-04-23T00:47:03.046Z,970.71
2023-04-23T00:48:03.205Z,970.54
2023-04-23T00:49:03.272Z,970.63
2023-04-23T00:50:03.277Z,970.60
2023-04-23T00:51:03.326Z,970.51
2023-04-23T00:52:03.296Z,970.60
2023-04-23T00:53:03.197Z,970.60
2023-04-23T00:54:03.303Z,970.54
2023-04-23T00:55:03.378Z,970.60
2023-04-23T00:56:03.409Z,970.66
2023-04-23T00:57:03.589Z,970.69
2023-04-23T00:58:03.478Z,970.57
2023-04-23T00:59:03.529Z,970.63
2023-04-23T01:00:03.569Z,970.60
2023-04-23T01:01:03.541Z,970.52
2023-04-23T01:02:04.037Z,970.52
2023-04-23T01:03:04.023Z,970.55
2023-04-23T01:04:04.443Z,970.52
2023-04-23T01:05:03.948Z,970.49
2023-04-23T01:06:02.965Z,970.41
2023-04-23T01:07:03.002Z,970.52
2023-04-23T01:08:03.066Z,970.52
2023-04-23T01:09:03.228Z,970.49
2023-04-23T01:10:03.206Z,970.58
2023-04-23T01:11:03.124Z,970.52
2023-04-23T01:12:03.190Z,970.55
2023-04-23T01:13:03.270Z,970.55
2023-04-23T01:14:03.181Z,970.46
2023-04-23T01:15:03.131Z,970.41
2023-04-23T01:16:03.216Z,970.41
2023-04-23T01:17:03.436Z,970.55
2023-04-23T01:18:03.249Z,970.55
2023-04-23T01:19:03.166Z,970.49
2023-04-23T01:20:03.365Z,970.55
2023-04-23T01:21:03.393Z,970.58
2023-04-23T01:22:03.532Z,970.49
2023-04-23T01:23:04.498Z,970.55
2023-04-23T01:24:03.581Z,970.52
2023-04-23T01:25:03.642Z,970.46
2023-04-23T01:26:03.717Z,970.46
2023-04-23T01:27:03.886Z,970.43
2023-04-23T01:28:03.071Z,970.49
2023-04-23T01:29:03.070Z,970.55
2023-04-23T01:30:03.022Z,970.46
2023-04-23T01:31:03.152Z,970.55
2023-04-23T01:32:03.153Z,970.55
2023-04-23T01:33:03.268Z,970.55
2023-04-23T01:34:03.350Z,970.52
2023-04-23T01:35:03.418Z,970.52
2023-04-23T01:36:03.425Z,970.46
2023-04-23T01:37:03.489Z,970.55
2023-04-23T01:38:03.684Z,970.46
2023-04-23T01:39:03.708Z,970.49
2023-04-23T01:40:03.727Z,970.52
2023-04-23T01:41:03.631Z,970.49
2023-04-23T01:42:03.788Z,970.43
2023-04-23T01:43:03.700Z,970.52
2023-04-23T01:44:03.674Z,970.58
2023-04-23T01:45:03.686Z,970.43
2023-04-23T01:46:03.732Z,970.49
2023-04-23T01:47:07.351Z,970.44
2023-04-23T01:48:03.144Z,970.55
2023-04-23T01:49:03.079Z,970.49
2023-04-23T01:50:03.110Z,970.49
2023-04-23T01:51:03.119Z,970.55
2023-04-23T01:52:03.211Z,970.64
2023-04-23T01:53:03.250Z,970.44
2023-04-23T01:54:03.368Z,970.52
2023-04-23T01:55:03.400Z,970.42
2023-04-23T01:56:03.426Z,970.42
2023-04-23T01:57:03.488Z,970.44
2023-04-23T01:58:03.456Z,970.52
2023-04-23T01:59:03.455Z,970.39
2023-04-23T02:00:03.527Z,970.49
2023-04-23T02:01:03.615Z,970.47
2023-04-23T02:02:04.295Z,970.36
2023-04-23T02:03:04.204Z,970.49
2023-04-23T02:04:03.658Z,970.44
2023-04-23T02:05:03.638Z,970.47
2023-04-23T02:06:03.643Z,970.36
2023-04-23T02:07:03.744Z,970.42
2023-04-23T02:08:03.762Z,970.25
2023-04-23T02:09:03.775Z,970.47
2023-04-23T02:10:03.852Z,970.42
2023-04-23T02:11:03.957Z,970.39
2023-04-23T02:12:03.836Z,970.31
2023-04-23T02:13:03.953Z,970.19
2023-04-23T02:14:03.880Z,970.34
2023-04-23T02:15:03.171Z,970.34
2023-04-23T02:16:03.232Z,970.37
2023-04-23T02:17:03.336Z,970.42
2023-04-23T02:18:03.378Z,970.44
2023-04-23T02:19:03.478Z,970.28
2023-04-23T02:20:03.479Z,970.42
2023-04-23T02:21:03.945Z,970.37
2023-04-23T02:22:03.902Z,970.47
2023-04-23T02:23:02.998Z,970.44
2023-04-23T02:24:03.056Z,970.31
2023-04-23T02:25:03.489Z,970.37
2023-04-23T02:26:03.443Z,970.40
2023-04-23T02:27:03.573Z,970.42
2023-04-23T02:28:02.995Z,970.40
2023-04-23T02:29:02.991Z,970.34
2023-04-23T02:30:03.071Z,970.19
2023-04-23T02:31:03.130Z,970.22
2023-04-23T02:32:03.244Z,970.40
2023-04-23T02:33:03.191Z,970.44
2023-04-23T02:34:03.234Z,970.28
2023-04-23T02:35:03.348Z,970.37
2023-04-23T02:36:03.523Z,970.25
2023-04-23T02:37:03.976Z,970.34
2023-04-23T02:38:03.501Z,970.45
2023-04-23T02:39:03.535Z,970.42
2023-04-23T02:40:03.579Z,970.34
2023-04-23T02:41:03.640Z,970.34
2023-04-23T02:42:03.851Z,970.37
2023-04-23T02:43:03.785Z,970.40
2023-04-23T02:44:03.820Z,970.37
2023-04-23T02:45:03.856Z,970.34
2023-04-23T02:46:03.842Z,970.45
2023-04-23T02:47:04.021Z,970.48
2023-04-23T02:48:03.960Z,970.40
2023-04-23T02:49:03.066Z,970.45
2023-04-23T02:50:03.104Z,970.42
2023-04-23T02:51:03.011Z,970.45
2023-04-23T02:52:03.013Z,970.40
2023-04-23T02:53:03.105Z,970.34
2023-04-23T02:54:03.053Z,970.40
2023-04-23T02:55:03.001Z,970.34
2023-04-23T02:56:03.047Z,970.40
2023-04-23T02:57:03.008Z,970.42
2023-04-23T02:58:02.971Z,970.53
2023-04-23T02:59:08.235Z,970.40
2023-04-23T03:00:02.991Z,970.54
2023-04-23T03:01:03.288Z,970.45
2023-04-23T03:02:03.378Z,970.42
2023-04-23T03:03:03.548Z,970.48
2023-04-23T03:04:03.676Z,970.54
2023-04-23T03:05:03.318Z,970.42
2023-04-23T03:06:03.374Z,970.54
2023-04-23T03:07:03.301Z,970.51
2023-04-23T03:08:03.449Z,970.59
2023-04-23T03:09:03.471Z,970.54
2023-04-23T03:10:03.644Z,970.42
2023-04-23T03:11:03.622Z,970.48
2023-04-23T03:12:03.697Z,970.48
2023-04-23T03:13:03.607Z,970.54
2023-04-23T03:14:03.696Z,970.54
2023-04-23T03:15:03.783Z,970.51
2023-04-23T03:16:03.869Z,970.65
2023-04-23T03:17:04.030Z,970.57
2023-04-23T03:18:03.963Z,970.51
2023-04-23T03:19:03.864Z,970.51
2023-04-23T03:20:03.129Z,970.60
2023-04-23T03:21:03.143Z,970.63
2023-04-23T03:22:03.113Z,970.66
2023-04-23T03:23:03.214Z,970.60
2023-04-23T03:24:03.319Z,970.60
2023-04-23T03:25:03.470Z,970.63
2023-04-23T03:26:03.554Z,970.52
2023-04-23T03:27:03.537Z,970.54
2023-04-23T03:28:03.601Z,970.60
2023-04-23T03:29:03.570Z,970.52
2023-04-23T03:30:03.609Z,970.49
2023-04-23T03:31:03.810Z,970.63
2023-04-23T03:32:03.622Z,970.58
2023-04-23T03:33:03.707Z,970.63
2023-04-23T03:34:03.724Z,970.60
2023-04-23T03:35:03.675Z,970.66
2023-04-23T03:36:03.776Z,970.55
2023-04-23T03:37:03.779Z,970.69
2023-04-23T03:38:03.853Z,970.52
2023-04-23T03:39:02.932Z,970.58
2023-04-23T03:40:03.041Z,970.55
2023-04-23T03:41:03.046Z,970.55
2023-04-23T03:42:03.076Z,970.66
2023-04-23T03:43:02.953Z,970.58
2023-04-23T03:44:03.131Z,970.61
2023-04-23T03:45:03.179Z,970.64
2023-04-23T03:46:03.297Z,970.75
2023-04-23T03:47:03.155Z,970.52
2023-04-23T03:48:03.160Z,970.61
2023-04-23T03:49:03.331Z,970.69
2023-04-23T03:50:03.262Z,970.55
2023-04-23T03:51:03.262Z,970.58
2023-04-23T03:52:03.234Z,970.58
2023-04-23T03:53:03.240Z,970.67
2023-04-23T03:54:03.391Z,970.47
2023-04-23T03:55:03.449Z,970.73
2023-04-23T03:56:03.549Z,970.67
2023-04-23T03:57:03.623Z,970.67
2023-04-23T03:58:03.665Z,970.64
2023-04-23T03:59:03.630Z,970.61
2023-04-23T04:00:03.658Z,970.56
2023-04-23T04:01:03.696Z,970.67
2023-04-23T04:02:03.755Z,970.64
2023-04-23T04:03:03.875Z,970.62
2023-04-23T04:04:04.488Z,970.70
2023-04-23T04:05:04.384Z,970.65
2023-04-23T04:06:03.760Z,970.62
2023-04-23T04:07:03.811Z,970.62
2023-04-23T04:08:03.926Z,970.59
2023-04-23T04:09:02.903Z,970.67
2023-04-23T04:10:03.145Z,970.76
2023-04-23T04:11:03.049Z,970.73
2023-04-23T04:12:03.102Z,970.82
2023-04-23T04:13:03.139Z,970.79
2023-04-23T04:14:03.220Z,970.73
2023-04-23T04:15:03.333Z,970.70
2023-04-23T04:16:03.320Z,970.62
2023-04-23T04:17:03.471Z,970.76
2023-04-23T04:18:03.542Z,970.68
2023-04-23T04:19:03.522Z,970.79
2023-04-23T04:20:03.515Z,970.76
2023-04-23T04:21:03.619Z,970.76
2023-04-23T04:22:03.628Z,970.79
2023-04-23T04:23:03.724Z,970.79
2023-04-23T04:24:03.609Z,970.79
2023-04-23T04:25:03.937Z,970.85
2023-04-23T04:26:03.879Z,970.91
2023-04-23T04:27:03.159Z,970.82
2023-04-23T04:28:03.216Z,970.71
2023-04-23T04:29:03.245Z,970.79
2023-04-23T04:30:03.899Z,970.82
2023-04-23T04:31:03.291Z,970.82
2023-04-23T04:32:04.161Z,970.82
2023-04-23T04:33:03.675Z,970.88
2023-04-23T04:34:03.641Z,970.82
2023-04-23T04:35:03.715Z,971.00
2023-04-23T04:36:03.781Z,970.94
2023-04-23T04:37:03.504Z,970.88
2023-04-23T04:38:03.560Z,970.88
2023-04-23T04:39:03.540Z,970.85
2023-04-23T04:40:03.837Z,971.00
2023-04-23T04:41:03.828Z,970.85
2023-04-23T04:42:03.837Z,971.00
2023-04-23T04:43:03.804Z,970.91
2023-04-23T04:44:03.848Z,970.85
2023-04-23T04:45:03.071Z,970.91
2023-04-23T04:46:05.296Z,970.86
2023-04-23T04:47:03.299Z,970.86
2023-04-23T04:48:03.196Z,970.86
2023-04-23T04:49:03.515Z,970.80
2023-04-23T04:50:03.488Z,970.74
2023-04-23T04:51:03.570Z,970.77
2023-04-23T04:52:03.761Z,970.83
2023-04-23T04:53:03.712Z,970.77
2023-04-23T04:54:03.858Z,970.92
2023-04-23T04:55:03.837Z,970.77
2023-04-23T04:56:03.963Z,970.95
2023-04-23T04:57:03.062Z,970.72
2023-04-23T04:58:02.982Z,970.80
2023-04-23T04:59:03.118Z,970.92
2023-04-23T05:00:03.093Z,970.75
2023-04-23T05:01:03.252Z,970.72
2023-04-23T05:02:03.113Z,970.72
2023-04-23T05:03:03.356Z,970.86
2023-04-23T05:04:03.585Z,970.78
2023-04-23T05:05:03.104Z,970.80
2023-04-23T05:06:03.282Z,970.83
2023-04-23T05:07:03.212Z,970.83
2023-04-23T05:08:03.243Z,970.72
2023-04-23T05:09:03.185Z,970.83
2023-04-23T05:10:03.223Z,970.78
2023-04-23T05:11:03.408Z,970.89
2023-04-23T05:12:03.293Z,970.78
2023-04-23T05:13:03.256Z,970.92
2023-04-23T05:14:03.326Z,970.98
2023-04-23T05:15:03.416Z,970.78
2023-04-23T05:16:03.250Z,970.86
2023-04-23T05:17:03.402Z,970.95
2023-04-23T05:18:03.582Z,970.84
2023-04-23T05:19:03.699Z,970.98
2023-04-23T05:20:03.686Z,970.86
2023-04-23T05:21:03.560Z,970.95
2023-04-23T05:22:03.798Z,970.92
2023-04-23T05:23:03.685Z,970.75
2023-04-23T05:24:03.784Z,971.04
2023-04-23T05:25:03.726Z,970.86
2023-04-23T05:26:03.753Z,970.86
2023-04-23T05:27:03.828Z,970.89
2023-04-23T05:28:03.791Z,970.95
2023-04-23T05:29:03.764Z,970.92
2023-04-23T05:30:03.834Z,970.72
2023-04-23T05:31:03.920Z,971.01
2023-04-23T05:32:03.932Z,970.89
2023-04-23T05:33:04.008Z,970.95
2023-04-23T05:34:03.976Z,970.95
2023-04-23T05:35:03.058Z,970.92
2023-04-23T05:36:02.950Z,970.95
2023-04-23T05:37:04.043Z,971.01
2023-04-23T05:38:03.065Z,971.06
2023-04-23T05:39:02.983Z,970.92
2023-04-23T05:40:03.013Z,970.89
2023-04-23T05:41:03.100Z,970.95
2023-04-23T05:42:03.154Z,970.92
2023-04-23T05:43:03.113Z,971.00
2023-04-23T05:44:03.110Z,970.89
2023-04-23T05:45:03.130Z,971.09
2023-04-23T05:46:03.184Z,971.01
2023-04-23T05:47:03.248Z,971.03
2023-04-23T05:48:03.298Z,971.01
2023-04-23T05:49:03.636Z,970.92
2023-04-23T05:50:03.541Z,970.89
2023-04-23T05:51:03.573Z,971.06
2023-04-23T05:52:03.630Z,970.95
2023-04-23T05:53:03.706Z,971.00
2023-04-23T05:54:03.604Z,970.95
2023-04-23T05:55:03.637Z,971.00
2023-04-23T05:56:03.580Z,970.95
2023-04-23T05:57:03.634Z,970.89
2023-04-23T05:58:03.599Z,970.97
2023-04-23T05:59:03.704Z,970.97
2023-04-23T06:00:03.933Z,971.03
2023-04-23T06:01:03.879Z,970.86
2023-04-23T06:02:03.914Z,970.95
2023-04-23T06:03:04.099Z,970.92
2023-04-23T06:04:04.301Z,970.92
2023-04-23T06:05:04.387Z,970.94
2023-04-23T06:06:04.074Z,970.97
2023-04-23T06:07:02.981Z,971.09
2023-04-23T06:08:02.995Z,971.00
2023-04-23T06:09:03.184Z,971.11
2023-04-23T06:10:03.237Z,971.05
2023-04-23T06:11:03.203Z,970.97
2023-04-23T06:12:03.212Z,971.05
2023-04-23T06:13:03.236Z,971.02
2023-04-23T06:14:03.306Z,971.11
2023-04-23T06:15:03.340Z,971.08
2023-04-23T06:16:03.387Z,971.08
2023-04-23T06:17:03.441Z,971.02
2023-04-23T06:18:03.539Z,971.05
2023-04-23T06:19:03.304Z,970.99
2023-04-23T06:20:03.328Z,971.08
2023-04-23T06:21:03.386Z,971.05
2023-04-23T06:22:03.291Z,971.02
2023-04-23T06:23:03.374Z,970.96
2023-04-23T06:24:03.407Z,970.98
2023-04-23T06:25:03.466Z,971.07
2023-04-23T06:26:03.384Z,971.18
2023-04-23T06:27:03.296Z,971.10
2023-04-23T06:28:03.843Z,971.13
2023-04-23T06:29:03.924Z,971.15
2023-04-23T06:30:03.953Z,971.18
2023-04-23T06:31:03.959Z,971.18
2023-04-23T06:32:03.980Z,971.09
2023-04-23T06:33:03.865Z,971.01
2023-04-23T06:34:03.780Z,971.15
2023-04-23T06:35:04.364Z,971.06
2023-04-23T06:36:03.833Z,971.09
2023-04-23T06:37:03.785Z,971.08
2023-04-23T06:38:03.721Z,971.00
2023-04-23T06:39:03.673Z,971.11
2023-04-23T06:40:03.752Z,971.19
2023-04-23T06:41:03.872Z,970.96
2023-04-23T06:42:03.765Z,971.13
2023-04-23T06:43:03.951Z,971.07
2023-04-23T06:44:03.925Z,971.13
2023-04-23T06:45:06.162Z,971.01
2023-04-23T06:46:03.053Z,970.95
2023-04-23T06:47:03.358Z,970.98
2023-04-23T06:48:03.017Z,971.12
2023-04-23T06:49:02.989Z,971.15
2023-04-23T06:50:03.052Z,971.09
2023-04-23T06:51:03.090Z,971.09
2023-04-23T06:52:03.525Z,970.97
2023-04-23T06:53:04.518Z,971.03
2023-04-23T06:54:03.487Z,971.03
2023-04-23T06:55:03.558Z,971.23
2023-04-23T06:56:03.605Z,971.20
2023-04-23T06:57:03.748Z,971.17
2023-04-23T06:58:03.789Z,971.14
2023-04-23T06:59:03.730Z,971.23
2023-04-23T07:00:03.945Z,971.26
2023-04-23T07:01:03.962Z,971.20
2023-04-23T07:02:03.890Z,971.14
2023-04-23T07:03:03.317Z,971.29
2023-04-23T07:04:03.025Z,971.23
2023-04-23T07:05:03.070Z,971.32
2023-04-23T07:06:03.526Z,971.32
2023-04-23T07:07:03.511Z,971.26
2023-04-23T07:08:03.709Z,971.18
2023-04-23T07:09:03.575Z,971.23
2023-04-23T07:10:03.484Z,971.35
2023-04-23T07:11:03.551Z,971.29
2023-04-23T07:12:03.630Z,971.41
2023-04-23T07:13:03.628Z,971.44
2023-04-23T07:14:03.682Z,971.38
2023-04-23T07:15:03.831Z,971.44
2023-04-23T07:16:03.819Z,971.38
2023-04-23T07:17:03.950Z,971.33
2023-04-23T07:18:03.982Z,971.36
2023-04-23T07:19:03.839Z,971.41
2023-04-23T07:20:03.799Z,971.36
2023-04-23T07:21:03.838Z,971.47
2023-04-23T07:22:02.978Z,971.68
2023-04-23T07:23:03.947Z,971.53
2023-04-23T07:24:03.923Z,971.48
2023-04-23T07:25:02.972Z,971.51
2023-04-23T07:26:03.068Z,971.57
2023-04-23T07:27:03.189Z,971.60
2023-04-23T07:28:03.097Z,971.60
2023-04-23T07:29:03.144Z,971.63
2023-04-23T07:30:03.161Z,971.60
2023-04-23T07:31:03.123Z,971.52
2023-04-23T07:32:03.135Z,971.59
2023-04-23T07:33:03.402Z,971.79
2023-04-23T07:34:03.282Z,971.59
2023-04-23T07:35:03.258Z,971.74
2023-04-23T07:36:03.183Z,971.66
2023-04-23T07:37:03.072Z,971.70
2023-04-23T07:38:03.041Z,971.59
2023-04-23T07:39:03.134Z,971.68
2023-04-23T07:40:03.163Z,971.74
2023-04-23T07:41:03.163Z,971.63
2023-04-23T07:42:03.821Z,971.81
2023-04-23T07:43:03.767Z,971.75
2023-04-23T07:44:03.823Z,971.76
2023-04-23T07:45:03.829Z,971.82
2023-04-23T07:46:03.822Z,971.76
2023-04-23T07:47:03.806Z,971.82
2023-04-23T07:48:03.224Z,971.74
2023-04-23T07:49:03.176Z,971.80
2023-04-23T07:50:03.083Z,971.77
2023-04-23T07:51:03.568Z,971.83
2023-04-23T07:52:03.497Z,971.93
2023-04-23T07:53:03.485Z,971.96
2023-04-23T07:54:03.587Z,971.85
2023-04-23T07:55:03.652Z,972.05
2023-04-23T07:56:03.627Z,971.94
2023-04-23T07:57:03.924Z,972.03
2023-04-23T07:58:04.002Z,971.97
2023-04-23T07:59:03.137Z,972.00
2023-04-23T08:00:03.889Z,971.97
2023-04-23T08:01:03.843Z,971.97
2023-04-23T08:02:03.959Z,971.94
2023-04-23T08:03:04.171Z,972.03
2023-04-23T08:04:04.524Z,971.97
2023-04-23T08:05:04.045Z,972.03
2023-04-23T08:06:03.930Z,971.92
2023-04-23T08:07:03.829Z,971.89
2023-04-23T08:08:05.736Z,971.92
2023-04-23T08:09:03.800Z,971.95
2023-04-23T08:10:03.849Z,972.03
2023-04-23T08:11:02.995Z,972.06
2023-04-23T08:12:03.108Z,972.12
2023-04-23T08:13:03.135Z,971.95
2023-04-23T08:14:03.322Z,972.00
2023-04-23T08:15:03.524Z,972.06
2023-04-23T08:16:03.383Z,972.12
2023-04-23T08:17:03.516Z,972.20
2023-04-23T08:18:03.550Z,972.09
2023-04-23T08:19:06.741Z,972.03
2023-04-23T08:20:03.532Z,972.03
2023-04-23T08:21:03.567Z,972.01
2023-04-23T08:22:03.477Z,971.98
2023-04-23T08:23:03.590Z,972.00
2023-04-23T08:24:03.637Z,971.95
2023-04-23T08:25:03.446Z,972.12
2023-04-23T08:26:03.360Z,972.06
2023-04-23T08:27:03.372Z,972.12
2023-04-23T08:28:03.399Z,972.09
2023-04-23T08:29:03.405Z,972.09
2023-04-23T08:30:03.419Z,972.11
2023-04-23T08:31:25.475Z,972.06
2023-04-23T08:32:03.599Z,971.91
2023-04-23T08:33:03.686Z,971.97
2023-04-23T08:34:03.422Z,972.14
2023-04-23T08:35:03.544Z,972.08
2023-04-23T08:36:03.446Z,972.08
2023-04-23T08:37:03.587Z,972.00
2023-04-23T08:38:03.559Z,972.00
2023-04-23T08:39:03.536Z,972.00
2023-04-23T08:40:03.536Z,971.94
2023-04-23T08:41:03.608Z,971.91
2023-04-23T08:42:03.588Z,971.85
2023-04-23T08:43:03.058Z,971.94
2023-04-23T08:44:03.517Z,971.93
2023-04-23T08:45:03.664Z,971.96
2023-04-23T08:46:03.595Z,971.93
2023-04-23T08:47:04.020Z,971.93
2023-04-23T08:48:03.518Z,971.92
2023-04-23T08:49:03.611Z,971.89
2023-04-23T08:50:03.575Z,971.83
2023-04-23T08:51:03.540Z,971.72
2023-04-23T08:52:03.679Z,971.63
2023-04-23T08:53:03.777Z,971.77
2023-04-23T08:54:03.651Z,971.73
2023-04-23T08:55:03.640Z,971.65
2023-04-23T08:56:03.701Z,971.76
2023-04-23T08:57:03.696Z,971.81
2023-04-23T08:58:03.634Z,971.72
2023-04-23T08:59:03.744Z,971.83
2023-04-23T09:00:03.792Z,971.91
2023-04-23T09:01:03.975Z,971.90
2023-04-23T09:02:03.084Z,971.77
2023-04-23T09:03:03.556Z,971.79
2023-04-23T09:04:03.260Z,971.86
2023-04-23T09:05:03.140Z,971.86
2023-04-23T09:06:03.117Z,971.97
2023-04-23T09:07:03.215Z,972.00
2023-04-23T09:08:03.270Z,972.05
2023-04-23T09:09:03.318Z,971.99
2023-04-23T09:10:03.382Z,971.92
2023-04-23T09:11:03.332Z,972.06
2023-04-23T09:12:03.436Z,971.86
2023-04-23T09:13:03.594Z,971.94
2023-04-23T09:14:03.495Z,972.05
2023-04-23T09:15:03.471Z,972.01
2023-04-23T09:16:03.494Z,971.98
2023-04-23T09:17:03.420Z,972.12
2023-04-23T09:18:03.468Z,972.08
2023-04-23T09:19:03.519Z,972.08
2023-04-23T09:20:03.439Z,972.16
2023-04-23T09:21:03.408Z,971.95
2023-04-23T09:22:03.554Z,972.07
2023-04-23T09:23:03.494Z,972.15
2023-04-23T09:24:03.622Z,972.09
2023-04-23T09:25:03.563Z,972.17
2023-04-23T09:26:03.686Z,972.11
2023-04-23T09:27:03.605Z,972.19
2023-04-23T09:28:03.720Z,972.31
2023-04-23T09:29:03.755Z,972.13
2023-04-23T09:30:03.693Z,972.30
2023-04-23T09:31:03.753Z,972.36
2023-04-23T09:32:04.046Z,972.24
2023-04-23T09:33:03.112Z,972.44
2023-04-23T09:34:03.061Z,972.35
2023-04-23T09:35:03.234Z,972.47
2023-04-23T09:36:03.190Z,972.41
2023-04-23T09:37:03.289Z,972.35
2023-04-23T09:38:03.353Z,972.60
2023-04-23T09:39:03.399Z,972.37
2023-04-23T09:40:03.495Z,972.54
2023-04-23T09:41:03.568Z,972.54
2023-04-23T09:42:03.500Z,972.60
2023-04-23T09:43:03.386Z,972.68
2023-04-23T09:44:03.590Z,972.62
2023-04-23T09:45:03.559Z,972.53
2023-04-23T09:46:03.774Z,972.56
2023-04-23T09:47:03.714Z,972.45
2023-04-23T09:48:03.747Z,972.38
2023-04-23T09:49:03.653Z,972.60
2023-04-23T09:50:03.720Z,972.57
2023-04-23T09:51:03.879Z,972.43
2023-04-23T09:52:04.030Z,972.59
2023-04-23T09:53:02.958Z,972.48
2023-04-23T09:54:03.399Z,972.64
2023-04-23T09:55:03.338Z,972.36
2023-04-23T09:56:03.334Z,972.44
2023-04-23T09:57:03.400Z,972.57
2023-04-23T09:58:03.464Z,972.59
2023-04-23T09:59:03.486Z,972.65
2023-04-23T10:00:15.172Z,972.70
2023-04-23T10:01:03.719Z,972.48
2023-04-23T10:02:03.725Z,972.55
2023-04-23T10:03:03.998Z,972.52
2023-04-23T10:04:04.008Z,972.66
2023-04-23T10:05:24.028Z,972.63
2023-04-23T10:06:04.482Z,972.47
2023-04-23T10:08:03.697Z,972.57
2023-04-23T10:09:03.747Z,972.46
2023-04-23T10:10:03.858Z,972.43
2023-04-23T10:11:20.813Z,972.62
2023-04-23T10:12:03.012Z,972.59
2023-04-23T10:13:02.971Z,972.65
2023-04-23T10:14:03.162Z,972.67
2023-04-23T10:15:03.426Z,972.76
2023-04-23T10:16:22.950Z,972.84
2023-04-23T10:17:03.349Z,972.69
2023-04-23T10:18:03.437Z,972.69
2023-04-23T10:19:03.486Z,972.83
2023-04-23T10:20:03.541Z,972.66
2023-04-23T10:21:03.440Z,972.68
2023-04-23T10:22:19.761Z,972.66
2023-04-23T10:23:03.542Z,972.77
2023-04-23T10:24:03.642Z,972.74
2023-04-23T10:25:03.616Z,972.71
2023-04-23T10:26:03.643Z,972.73
2023-04-23T10:27:03.643Z,972.79
2023-04-23T10:28:03.669Z,972.73
2023-04-23T10:29:03.718Z,972.70
2023-04-23T10:30:06.722Z,972.67
2023-04-23T10:31:03.877Z,972.63
2023-04-23T10:32:03.860Z,972.57
2023-04-23T10:33:03.933Z,972.66
2023-04-23T10:34:04.083Z,972.65
2023-04-23T10:35:03.067Z,972.74
2023-04-23T10:36:03.075Z,972.65
2023-04-23T10:37:03.198Z,972.65
2023-04-23T10:38:03.186Z,972.67
2023-04-23T10:39:03.270Z,972.67
2023-04-23T10:40:03.328Z,972.70
2023-04-23T10:41:03.174Z,972.78
2023-04-23T10:42:03.237Z,972.75
2023-04-23T10:43:03.224Z,972.78
2023-04-23T10:44:03.283Z,972.93
2023-04-23T10:45:23.882Z,972.72
2023-04-23T10:46:03.457Z,972.69
2023-04-23T10:47:03.302Z,972.78
2023-04-23T10:48:03.517Z,972.75
2023-04-23T10:49:03.330Z,972.83
2023-04-23T10:50:04.218Z,972.80
2023-04-23T10:52:19.200Z,972.65
2023-04-23T10:53:03.028Z,972.76
2023-04-23T10:54:02.956Z,972.59
2023-04-23T10:55:03.946Z,972.67
2023-04-23T10:56:03.206Z,972.58
2023-04-23T10:57:03.239Z,972.64
2023-04-23T10:58:03.739Z,972.70
2023-04-23T10:59:03.149Z,972.70
2023-04-23T11:00:03.180Z,972.69
2023-04-23T11:01:03.062Z,972.66
2023-04-23T11:02:03.170Z,972.55
2023-04-23T11:03:03.306Z,972.63
2023-04-23T11:04:03.411Z,972.66
2023-04-23T11:05:03.625Z,972.63
2023-04-23T11:06:03.100Z,972.78
2023-04-23T11:07:03.206Z,972.78
2023-04-23T11:08:19.142Z,972.75
2023-04-23T11:09:03.219Z,972.58
2023-04-23T11:10:03.384Z,972.55
2023-04-23T11:11:03.305Z,972.60
2023-04-23T11:12:03.525Z,972.78
2023-04-23T11:13:03.538Z,972.77
2023-04-23T11:14:03.424Z,972.77
2023-04-23T11:15:03.371Z,972.63
2023-04-23T11:16:03.613Z,972.66
2023-04-23T11:17:03.700Z,972.72
2023-04-23T11:18:03.860Z,972.83
2023-04-23T11:19:03.921Z,972.78
2023-04-23T11:20:03.783Z,972.75
2023-04-23T11:21:03.935Z,972.84
2023-04-23T11:22:03.758Z,972.81
2023-04-23T11:23:03.860Z,972.90
2023-04-23T11:24:03.911Z,972.78
2023-04-23T11:25:02.969Z,972.93
2023-04-23T11:26:03.901Z,972.90
2023-04-23T11:27:03.180Z,972.90
2023-04-23T11:28:02.914Z,972.84
2023-04-23T11:29:03.107Z,972.87
2023-04-23T11:30:03.120Z,972.78
2023-04-23T11:31:03.051Z,972.95
2023-04-23T11:32:04.447Z,972.95
2023-04-23T11:33:03.378Z,972.78
2023-04-23T11:34:03.146Z,972.89
2023-04-23T11:35:03.280Z,972.63
2023-04-23T11:36:03.182Z,972.81
2023-04-23T11:37:03.917Z,972.69
2023-04-23T11:38:03.242Z,972.74
2023-04-23T11:39:03.363Z,972.65
2023-04-23T11:40:03.260Z,972.67
2023-04-23T11:41:03.353Z,972.55
2023-04-23T11:42:03.264Z,972.55
2023-04-23T11:43:03.188Z,972.61
2023-04-23T11:44:02.998Z,972.55
2023-04-23T11:45:03.109Z,972.60
2023-04-23T11:46:03.303Z,972.63
2023-04-23T11:47:03.205Z,972.69
2023-04-23T11:48:03.139Z,972.61
2023-04-23T11:49:03.205Z,972.61
2023-04-23T11:50:03.200Z,972.72
2023-04-23T11:51:03.110Z,972.64
2023-04-23T11:52:03.059Z,972.79
2023-04-23T11:53:03.034Z,972.79
2023-04-23T11:54:03.018Z,972.68
2023-04-23T11:55:03.086Z,972.80
2023-04-23T11:56:03.245Z,972.71
2023-04-23T11:57:03.135Z,972.74
2023-04-23T11:58:03.152Z,972.75
2023-04-23T11:59:03.283Z,972.69
2023-04-23T12:00:03.309Z,972.72
2023-04-23T12:01:03.690Z,972.63
2023-04-23T12:02:03.972Z,972.69
2023-04-23T12:03:03.534Z,972.57
2023-04-23T12:04:03.392Z,972.54
2023-04-23T12:05:03.255Z,972.62
2023-04-23T12:06:03.228Z,972.48
2023-04-23T12:07:19.510Z,972.33
2023-04-23T12:08:03.294Z,972.58
2023-04-23T12:09:03.274Z,972.47
2023-04-23T12:10:03.353Z,972.44
2023-04-23T12:11:03.363Z,972.52
2023-04-23T12:12:03.304Z,972.44
2023-04-23T12:13:03.190Z,972.55
2023-04-23T12:14:03.412Z,972.64
2023-04-23T12:15:03.362Z,972.52
2023-04-23T12:16:03.608Z,972.48
2023-04-23T12:17:03.433Z,972.53
2023-04-23T12:18:03.658Z,972.39
2023-04-23T12:19:03.532Z,972.45
2023-04-23T12:20:03.429Z,972.46
2023-04-23T12:21:03.432Z,972.56
2023-04-23T12:22:03.648Z,972.54
2023-04-23T12:23:03.696Z,972.46
2023-04-23T12:24:03.797Z,972.46
2023-04-23T12:25:03.783Z,972.40
2023-04-23T12:26:03.469Z,972.29
2023-04-23T12:27:03.959Z,972.31
2023-04-23T12:28:03.798Z,972.37
2023-04-23T12:29:03.768Z,972.37
2023-04-23T12:30:07.185Z,972.45